Alpine, Alabama
Current Conditions -  °F | °C
As of 11:35 PM on Saturday 22 Nov 2014 (Local Time) from KSCD Reporting Station
Overcast Overcast  
Wind Chill: 54°   Ceiling: 5000
Heat Index: 54°   Visibility: 10mi
Dew Point: 50°   Wind: 8mph
Humidity: 86%   Direction: 120°ESE
Pressure: 30.09"   Gusts: 18mph
Location:  33.34°N, 86.23°W
Report Text: KSCD 230535Z AUTO 12007G16KT 10SM SCT019 OVC050 12/10 A3009 RMK AO2 T01230100
Loading
Personal Weather Stations






























Interactive Weather Map New forecast layout! Learn more

10-Day Weather Forecast

Advertisements
Track Severe Weather on mobile